Time;durP1;ratioP1;P1;durP2;ratioP2;P2;SDS_P1;SDS_P2;PMS_P1;PMS_P2;Temp;Humidity;BMP_temperature;BMP_pressure;BME280_temperature;BME280_humidity;BME280_pressure;Samples;Min_cycle;Max_cycle;Signal;HPM_P1;HPM_P2
2022/12/10 00:01:30;;;;;;;84.40;40.05;;;0.50;99.90;;;;;;5050795;28;20462;-57
2022/12/10 00:03:57;;;;;;;82.78;40.53;;;0.50;99.90;;;;;;5068404;28;20130;-57
2022/12/10 00:06:26;;;;;;;82.68;39.35;;;0.50;99.90;;;;;;5052730;28;20390;-58
2022/12/10 00:08:52;;;;;;;81.50;38.33;;;0.50;99.90;;;;;;5068932;28;20575;-55
2022/12/10 00:11:20;;;;;;;85.90;41.63;;;0.60;99.90;;;;;;5058928;28;20134;-58
2022/12/10 00:13:47;;;;;;;84.50;37.70;;;0.60;99.90;;;;;;5070947;28;20055;-58
2022/12/10 00:16:15;;;;;;;87.68;40.13;;;0.60;99.90;;;;;;5082498;28;20035;-58
2022/12/10 00:18:41;;;;;;;85.22;40.25;;;0.60;99.90;;;;;;5053424;28;20031;-57
2022/12/10 00:21:11;;;;;;;84.57;40.17;;;0.60;99.90;;;;;;5071349;28;20043;-58
2022/12/10 00:23:37;;;;;;;83.47;39.78;;;0.60;99.90;;;;;;5071330;28;20050;-58
2022/12/10 00:26:12;;;;;;;91.20;40.80;;;0.70;99.90;;;;;;5073790;28;20036;-58
2022/12/10 00:28:38;;;;;;;95.35;41.00;;;0.70;99.90;;;;;;5071331;28;20306;-56
2022/12/10 00:31:10;;;;;;;89.97;43.05;;;0.70;99.90;;;;;;5075054;28;20035;-58
2022/12/10 00:33:36;;;;;;;93.15;41.63;;;0.70;99.90;;;;;;5058608;28;20123;-57
2022/12/10 00:36:09;;;;;;;89.35;39.67;;;0.70;99.90;;;;;;5076612;28;20122;-58
2022/12/10 00:38:34;;;;;;;97.10;43.25;;;0.70;99.90;;;;;;5099671;28;20517;-57
2022/12/10 00:41:00;;;;;;;89.13;39.75;;;0.70;99.90;;;;;;5073108;28;20114;-58
2022/12/10 00:43:26;;;;;;;88.43;41.13;;;0.70;99.90;;;;;;5100569;28;20040;-58
2022/12/10 00:45:53;;;;;;;90.97;41.45;;;0.70;99.90;;;;;;5074772;28;20039;-58
2022/12/10 00:48:18;;;;;;;96.75;41.83;;;0.80;99.90;;;;;;5075128;28;20062;-58
2022/12/10 00:50:53;;;;;;;86.45;40.38;;;0.70;99.90;;;;;;5083492;28;20498;-58
2022/12/10 00:53:19;;;;;;;95.20;43.90;;;0.80;99.90;;;;;;5069314;28;20086;-58
2022/12/10 00:55:45;;;;;;;90.15;41.90;;;0.80;99.90;;;;;;5090580;28;20047;-58
2022/12/10 00:58:11;;;;;;;84.22;39.08;;;0.80;99.90;;;;;;5105578;27;20603;-58
2022/12/10 01:00:36;;;;;;;95.07;41.38;;;0.80;99.90;;;;;;5071168;28;20046;-58
2022/12/10 01:03:02;;;;;;;90.95;42.15;;;0.80;99.90;;;;;;5082550;27;20336;-58
2022/12/10 01:05:28;;;;;;;95.20;42.72;;;0.80;99.90;;;;;;5063326;27;20044;-58
2022/12/10 01:07:53;;;;;;;105.97;44.65;;;0.80;99.90;;;;;;5055187;28;20470;-57
2022/12/10 01:10:19;;;;;;;92.97;42.20;;;0.80;99.90;;;;;;5077684;28;20677;-58
2022/12/10 01:12:45;;;;;;;100.20;43.92;;;0.80;99.90;;;;;;5075584;28;20051;-57
2022/12/10 01:15:11;;;;;;;100.53;41.60;;;0.80;99.90;;;;;;5062142;28;20055;-58
2022/12/10 01:17:37;;;;;;;102.05;43.58;;;0.80;99.90;;;;;;5077334;28;20072;-58
2022/12/10 01:20:03;;;;;;;97.80;43.13;;;0.90;99.90;;;;;;5060637;28;20119;-58
2022/12/10 01:22:29;;;;;;;96.38;42.05;;;0.80;99.90;;;;;;5078247;28;20040;-58
2022/12/10 01:24:54;;;;;;;96.40;42.28;;;0.80;99.90;;;;;;5076187;27;20043;-55
2022/12/10 01:27:20;;;;;;;92.78;41.28;;;0.80;99.90;;;;;;5077411;28;20032;-58
2022/12/10 01:29:46;;;;;;;96.28;41.55;;;0.80;99.90;;;;;;5075423;28;20610;-58
2022/12/10 01:32:11;;;;;;;94.75;43.17;;;0.80;99.90;;;;;;5061709;28;20136;-57
2022/12/10 01:34:37;;;;;;;102.95;40.95;;;0.80;99.90;;;;;;5064731;28;20397;-58
2022/12/10 01:37:03;;;;;;;101.30;42.78;;;0.80;99.90;;;;;;5094269;28;20032;-57
2022/12/10 01:39:28;;;;;;;99.32;43.03;;;0.80;99.90;;;;;;5083103;28;20596;-58
2022/12/10 01:41:57;;;;;;;92.22;42.28;;;0.80;99.90;;;;;;5038621;28;20036;-58
2022/12/10 01:44:22;;;;;;;96.00;39.85;;;0.80;99.90;;;;;;5069002;28;20191;-57
2022/12/10 01:46:51;;;;;;;98.93;44.30;;;0.80;99.90;;;;;;5081299;28;20047;-56
2022/12/10 01:49:22;;;;;;;111.13;43.75;;;0.80;99.90;;;;;;5083383;27;20035;-57
2022/12/10 01:51:51;;;;;;;101.55;42.40;;;0.80;99.90;;;;;;5097784;28;20073;-57
2022/12/10 01:54:22;;;;;;;112.38;44.55;;;0.80;99.90;;;;;;5101122;28;20092;-58
2022/12/10 01:56:57;;;;;;;100.20;43.15;;;0.80;99.90;;;;;;5084213;28;20044;-58
2022/12/10 01:59:25;;;;;;;101.68;41.95;;;0.80;99.90;;;;;;5062302;28;20048;-58
2022/12/10 02:02:32;;;;;;;100.78;42.60;;;0.80;99.90;;;;;;5077560;28;20044;-57
2022/12/10 02:05:24;;;;;;;89.95;40.63;;;0.70;99.90;;;;;;5087111;28;20048;-58
2022/12/10 02:08:03;;;;;;;99.03;42.75;;;0.70;99.90;;;;;;5061042;28;20035;-57
2022/12/10 02:10:34;;;;;;;104.88;44.45;;;0.70;99.90;;;;;;5068985;28;20423;-57
2022/12/10 02:13:21;;;;;;;114.40;46.72;;;0.70;99.90;;;;;;5073971;28;20052;-58
2022/12/10 02:16:14;;;;;;;102.80;44.15;;;0.70;99.90;;;;;;5071211;28;20050;-58
2022/12/10 02:18:55;;;;;;;97.95;43.60;;;0.70;99.90;;;;;;5060713;28;20051;-58
2022/12/10 02:21:29;;;;;;;87.43;38.90;;;0.70;99.90;;;;;;5069409;28;20042;-58
2022/12/10 02:24:01;;;;;;;101.05;42.17;;;0.70;99.90;;;;;;5072350;28;20036;-58
2022/12/10 02:26:32;;;;;;;101.15;44.35;;;0.60;99.90;;;;;;5068617;28;20040;-58
2022/12/10 02:29:14;;;;;;;98.95;42.58;;;0.70;99.90;;;;;;5075649;28;20040;-57
2022/12/10 02:31:47;;;;;;;110.72;43.92;;;0.60;99.90;;;;;;5083485;28;20090;-58
2022/12/10 02:34:14;;;;;;;107.97;45.38;;;0.60;99.90;;;;;;5051708;28;20126;-58
2022/12/10 02:36:44;;;;;;;101.57;41.03;;;0.60;99.90;;;;;;5097644;27;20115;-58
2022/12/10 02:39:14;;;;;;;101.85;43.80;;;0.60;99.90;;;;;;5078883;28;20055;-58
2022/12/10 02:41:43;;;;;;;97.45;41.33;;;0.60;99.90;;;;;;5074305;28;20565;-58
2022/12/10 02:44:12;;;;;;;96.43;42.53;;;0.60;99.90;;;;;;5061963;28;20044;-58
2022/12/10 02:46:40;;;;;;;97.88;41.60;;;0.60;99.90;;;;;;5097280;28;20043;-58
2022/12/10 02:49:08;;;;;;;92.07;39.80;;;0.60;99.90;;;;;;5104389;22;20044;-61
2022/12/10 02:51:34;;;;;;;92.38;40.60;;;0.60;99.90;;;;;;5078050;28;20047;-61
2022/12/10 02:54:02;;;;;;;95.00;42.92;;;0.50;99.90;;;;;;5060398;28;20048;-60
2022/12/10 02:56:42;;;;;;;85.32;40.42;;;0.50;99.90;;;;;;5080003;28;20028;-61
2022/12/10 02:59:28;;;;;;;87.75;39.03;;;0.50;99.90;;;;;;5080223;28;20043;-61
2022/12/10 03:02:08;;;;;;;92.10;42.10;;;0.50;99.90;;;;;;5081357;28;20040;-60
2022/12/10 03:05:05;;;;;;;79.43;37.75;;;0.50;99.90;;;;;;5042620;28;20147;-61
2022/12/10 03:07:35;;;;;;;90.25;40.80;;;0.40;99.90;;;;;;5056261;28;20048;-62
2022/12/10 03:10:17;;;;;;;84.20;36.80;;;0.40;99.90;;;;;;5073576;28;20089;-61
2022/12/10 03:12:51;;;;;;;89.75;42.08;;;0.30;99.90;;;;;;5077877;28;20036;-61
2022/12/10 03:15:19;;;;;;;82.68;39.00;;;0.40;99.90;;;;;;5058869;28;20424;-62
2022/12/10 03:17:46;;;;;;;97.97;43.10;;;0.40;99.90;;;;;;5075193;28;20044;-60
2022/12/10 03:20:14;;;;;;;90.63;39.90;;;0.40;99.90;;;;;;5060960;28;20039;-61
2022/12/10 03:22:45;;;;;;;95.68;42.75;;;0.40;99.90;;;;;;5077353;28;20406;-62
2022/12/10 03:25:16;;;;;;;91.05;41.40;;;0.40;99.90;;;;;;5077658;28;20041;-62
2022/12/10 03:27:45;;;;;;;84.47;36.80;;;0.40;99.90;;;;;;5059445;28;20051;-62
2022/12/10 03:30:11;;;;;;;89.18;38.97;;;0.40;99.90;;;;;;5078379;28;20032;-62
2022/12/10 03:32:37;;;;;;;94.30;42.75;;;0.40;99.90;;;;;;5063742;28;20158;-62
2022/12/10 03:35:04;;;;;;;91.68;42.25;;;0.40;99.90;;;;;;5056757;28;20117;-61
2022/12/10 03:37:30;;;;;;;96.40;44.67;;;0.40;99.90;;;;;;5069277;28;20495;-62
2022/12/10 03:39:58;;;;;;;96.05;42.08;;;0.40;99.90;;;;;;5074613;28;20342;-62
2022/12/10 03:42:23;;;;;;;101.45;41.75;;;0.50;99.90;;;;;;5057391;28;20050;-60
2022/12/10 03:44:51;;;;;;;97.65;43.50;;;0.50;99.90;;;;;;5074700;28;20224;-62
2022/12/10 03:47:17;;;;;;;98.78;40.95;;;0.50;99.90;;;;;;5059414;28;20101;-60
2022/12/10 03:49:43;;;;;;;104.30;42.70;;;0.50;99.90;;;;;;5075772;28;20558;-61
2022/12/10 03:52:09;;;;;;;102.97;43.72;;;0.40;99.90;;;;;;5028081;28;20142;-61
2022/12/10 03:54:35;;;;;;;145.70;47.03;;;0.50;99.90;;;;;;5062241;28;20475;-62
2022/12/10 03:57:01;;;;;;;113.72;44.25;;;0.50;99.90;;;;;;5040941;28;20063;-62
2022/12/10 03:59:27;;;;;;;140.77;46.90;;;0.50;99.90;;;;;;5074717;28;20075;-62
2022/12/10 04:01:52;;;;;;;120.95;43.53;;;0.50;99.90;;;;;;5079152;28;20394;-62
2022/12/10 04:04:18;;;;;;;125.45;44.50;;;0.50;99.90;;;;;;5083138;28;20067;-61
2022/12/10 04:06:44;;;;;;;123.45;44.30;;;0.50;99.90;;;;;;5058082;28;20506;-62
2022/12/10 04:09:11;;;;;;;170.55;46.92;;;0.50;99.90;;;;;;5040974;28;20041;-62
2022/12/10 04:11:37;;;;;;;147.18;47.65;;;0.50;99.90;;;;;;5083613;28;20456;-61
2022/12/10 04:16:47;;;;;;;175.27;49.67;;;0.50;99.90;;;;;;5061079;28;20122;-62
2022/12/10 04:19:15;;;;;;;167.30;49.35;;;0.50;99.90;;;;;;5064325;28;20126;-61
2022/12/10 04:27:18;;;;;;;203.82;51.03;;;0.60;99.90;;;;;;5066258;28;20536;-61
2022/12/10 04:29:44;;;;;;;153.63;46.47;;;0.60;99.90;;;;;;5065459;28;20093;-60
2022/12/10 04:32:10;;;;;;;184.60;49.95;;;0.60;99.90;;;;;;5066405;28;20044;-60
2022/12/10 04:34:36;;;;;;;206.18;53.53;;;0.70;99.90;;;;;;5087969;28;20040;-60
2022/12/10 04:37:03;;;;;;;145.88;47.60;;;0.70;99.90;;;;;;5058278;28;20040;-62
2022/12/10 04:39:29;;;;;;;203.05;52.55;;;0.70;99.90;;;;;;5048617;28;20032;-61
2022/12/10 04:41:56;;;;;;;154.15;47.53;;;0.70;99.90;;;;;;5068563;28;21333;-62
2022/12/10 04:44:21;;;;;;;166.77;47.88;;;0.80;99.90;;;;;;5061802;28;20484;-62
2022/12/10 04:46:48;;;;;;;143.38;48.20;;;0.80;99.90;;;;;;5061164;28;20044;-62
2022/12/10 04:49:14;;;;;;;131.40;47.75;;;0.80;99.90;;;;;;5078203;28;20438;-62
2022/12/10 04:51:40;;;;;;;168.68;47.30;;;0.80;99.90;;;;;;5063213;28;20040;-62
2022/12/10 04:54:06;;;;;;;167.80;47.38;;;0.90;99.90;;;;;;5081824;28;20032;-62
2022/12/10 04:56:33;;;;;;;160.80;49.38;;;0.90;99.90;;;;;;5078747;28;20040;-62
2022/12/10 04:59:00;;;;;;;224.00;50.70;;;0.90;99.90;;;;;;5060631;28;20036;-61
2022/12/10 05:01:27;;;;;;;241.02;51.00;;;0.90;99.90;;;;;;5084390;28;20510;-60
2022/12/10 05:03:53;;;;;;;170.60;49.42;;;0.90;99.90;;;;;;5082055;28;20036;-61
2022/12/10 05:06:20;;;;;;;235.23;54.63;;;0.90;99.90;;;;;;5059713;28;20059;-61
2022/12/10 05:08:47;;;;;;;218.60;51.38;;;0.90;99.90;;;;;;5077328;28;20040;-61
2022/12/10 05:11:16;;;;;;;172.15;50.55;;;0.90;99.90;;;;;;5080775;28;20075;-61
2022/12/10 05:13:41;;;;;;;189.88;48.47;;;0.90;99.90;;;;;;5057022;28;20047;-61
2022/12/10 05:16:10;;;;;;;189.05;48.22;;;0.90;99.90;;;;;;5084260;28;20032;-61
2022/12/10 05:18:36;;;;;;;149.63;43.72;;;0.90;99.90;;;;;;5064202;28;21446;-60
2022/12/10 05:21:05;;;;;;;161.98;43.42;;;0.90;99.90;;;;;;5067862;28;20499;-62
2022/12/10 05:23:32;;;;;;;299.75;51.00;;;1.00;99.90;;;;;;5075350;28;20040;-60
2022/12/10 05:26:22;;;;;;;305.40;52.08;;;1.00;99.90;;;;;;5079076;28;20050;-62
2022/12/10 05:28:55;;;;;;;231.60;43.15;;;1.00;99.90;;;;;;5061660;28;20159;-61
2022/12/10 05:31:24;;;;;;;181.30;39.72;;;1.10;99.90;;;;;;5060397;28;20054;-62
2022/12/10 05:33:50;;;;;;;243.70;42.00;;;1.00;99.90;;;;;;5061998;28;20048;-62
2022/12/10 05:36:19;;;;;;;286.30;47.90;;;1.10;99.90;;;;;;5061296;28;20048;-60
2022/12/10 05:38:46;;;;;;;122.95;33.03;;;1.10;99.90;;;;;;5081350;28;20202;-62
2022/12/10 05:41:14;;;;;;;224.60;41.42;;;1.10;99.90;;;;;;5085204;28;20051;-62
2022/12/10 05:43:41;;;;;;;153.82;35.85;;;1.10;99.90;;;;;;5070453;28;20051;-63
2022/12/10 05:46:10;;;;;;;174.80;34.40;;;1.10;99.90;;;;;;5043310;28;20054;-61
2022/12/10 05:48:37;;;;;;;180.05;35.03;;;1.10;99.90;;;;;;5083006;28;20032;-62
2022/12/10 05:51:08;;;;;;;145.68;33.40;;;1.10;99.90;;;;;;5081156;28;20032;-62
2022/12/10 05:53:34;;;;;;;164.20;34.30;;;1.10;99.90;;;;;;5059139;28;20046;-62
2022/12/10 05:56:01;;;;;;;203.48;38.70;;;1.10;99.90;;;;;;5057744;28;20395;-63
2022/12/10 05:58:28;;;;;;;132.57;32.55;;;1.10;99.90;;;;;;5076838;28;20514;-61
2022/12/10 06:00:58;;;;;;;159.88;33.28;;;1.10;99.90;;;;;;5061076;28;20040;-63
2022/12/10 06:03:26;;;;;;;112.38;31.42;;;1.20;99.90;;;;;;5060770;28;20453;-61
2022/12/10 06:05:52;;;;;;;166.88;39.40;;;1.20;99.90;;;;;;5061626;28;20093;-61
2022/12/10 06:08:17;;;;;;;222.27;42.45;;;1.20;99.90;;;;;;5064071;28;20036;-62
2022/12/10 06:10:43;;;;;;;165.68;41.45;;;1.20;99.90;;;;;;5076402;28;20434;-62
2022/12/10 06:13:09;;;;;;;163.10;37.80;;;1.10;99.90;;;;;;5062509;28;20391;-61
2022/12/10 06:15:40;;;;;;;174.82;38.53;;;1.20;99.90;;;;;;5073319;28;20040;-61
2022/12/10 06:18:06;;;;;;;155.63;36.35;;;1.20;99.90;;;;;;5075991;28;20062;-61
2022/12/10 06:20:32;;;;;;;121.53;31.90;;;1.20;99.90;;;;;;5076013;28;20024;-62
2022/12/10 06:22:57;;;;;;;191.43;39.72;;;1.20;99.90;;;;;;5080140;28;20089;-61
2022/12/10 06:25:23;;;;;;;175.82;39.30;;;1.20;99.90;;;;;;5048488;28;20039;-62
2022/12/10 06:27:49;;;;;;;198.40;39.88;;;1.20;99.90;;;;;;5059012;28;20060;-61
2022/12/10 06:30:18;;;;;;;153.05;34.30;;;1.20;99.90;;;;;;5054221;28;20036;-61
2022/12/10 06:32:44;;;;;;;157.77;36.33;;;1.20;99.90;;;;;;5073588;28;20044;-62
2022/12/10 06:35:10;;;;;;;135.52;34.67;;;1.20;99.90;;;;;;5074783;28;20433;-61
2022/12/10 06:37:36;;;;;;;127.40;31.90;;;1.20;99.90;;;;;;5055865;28;20082;-62
2022/12/10 06:40:02;;;;;;;238.23;43.55;;;1.20;99.90;;;;;;5076244;28;20059;-63
2022/12/10 06:42:28;;;;;;;114.38;30.80;;;1.20;99.90;;;;;;5071740;28;20032;-61
2022/12/10 06:44:53;;;;;;;192.52;36.15;;;1.20;99.90;;;;;;5039336;28;20040;-61
2022/12/10 06:47:19;;;;;;;116.47;28.92;;;1.20;99.90;;;;;;5044638;28;20204;-61
2022/12/10 06:49:45;;;;;;;158.02;33.67;;;1.20;99.90;;;;;;5056905;28;20498;-62
2022/12/10 06:52:10;;;;;;;209.27;36.92;;;1.20;99.90;;;;;;5042744;28;20048;-62
2022/12/10 06:54:37;;;;;;;122.45;30.27;;;1.20;99.90;;;;;;5076175;28;20079;-62
2022/12/10 06:57:02;;;;;;;159.50;31.02;;;1.20;99.90;;;;;;5078201;28;20474;-62
2022/12/10 06:59:28;;;;;;;211.48;35.20;;;1.20;99.90;;;;;;5080070;28;20068;-61
2022/12/10 07:01:54;;;;;;;184.48;33.60;;;1.20;99.90;;;;;;5062482;28;20038;-61
2022/12/10 07:04:19;;;;;;;286.60;40.47;;;1.20;99.90;;;;;;5072724;28;20512;-61
2022/12/10 07:06:45;;;;;;;205.20;34.10;;;1.20;99.90;;;;;;5078294;28;20203;-63
2022/12/10 07:09:11;;;;;;;207.40;33.88;;;1.20;99.90;;;;;;5081359;28;20040;-62
2022/12/10 07:11:37;;;;;;;124.68;26.70;;;1.20;99.90;;;;;;5080199;28;20032;-60
2022/12/10 07:14:03;;;;;;;165.27;30.05;;;1.20;99.90;;;;;;5059378;28;20390;-62
2022/12/10 07:16:31;;;;;;;207.88;34.38;;;1.30;99.90;;;;;;5055151;28;20698;-61
2022/12/10 07:19:02;;;;;;;133.13;27.88;;;1.30;99.90;;;;;;5060328;28;20052;-62
2022/12/10 07:21:33;;;;;;;122.10;28.83;;;1.30;99.90;;;;;;5061327;28;20035;-62
2022/12/10 07:24:12;;;;;;;135.95;30.80;;;1.20;99.90;;;;;;5072222;28;20581;-61
2022/12/10 07:26:40;;;;;;;196.85;30.88;;;1.30;99.90;;;;;;5065938;28;20032;-62
2022/12/10 07:29:09;;;;;;;123.35;29.13;;;1.30;99.90;;;;;;5053933;28;20047;-61
2022/12/10 07:31:35;;;;;;;163.52;29.88;;;1.30;99.90;;;;;;5072476;28;20047;-62
2022/12/10 07:34:01;;;;;;;127.43;27.08;;;1.30;99.90;;;;;;5073968;28;20036;-61
2022/12/10 07:36:27;;;;;;;174.20;27.55;;;1.30;99.90;;;;;;5059647;28;20047;-62
2022/12/10 07:38:54;;;;;;;205.57;31.05;;;1.30;99.90;;;;;;5081388;28;20452;-62
2022/12/10 07:41:20;;;;;;;191.52;32.72;;;1.30;99.90;;;;;;5077679;28;20032;-62
2022/12/10 07:43:46;;;;;;;239.30;35.60;;;1.30;99.90;;;;;;5067798;28;20047;-62
2022/12/10 07:46:21;;;;;;;188.63;31.75;;;1.30;99.90;;;;;;5073884;28;20234;-62
2022/12/10 07:48:48;;;;;;;144.98;30.48;;;1.30;99.90;;;;;;5056666;28;20132;-61
2022/12/10 07:51:15;;;;;;;206.95;36.33;;;1.30;99.90;;;;;;5069148;28;20442;-62
2022/12/10 07:53:42;;;;;;;163.43;30.45;;;1.30;99.90;;;;;;5038808;28;20040;-62
2022/12/10 07:56:07;;;;;;;149.23;31.85;;;1.30;99.90;;;;;;5073248;28;20043;-62
2022/12/10 07:58:33;;;;;;;213.13;36.97;;;1.30;99.90;;;;;;5081132;28;20028;-61
2022/12/10 08:00:59;;;;;;;130.48;29.67;;;1.30;99.90;;;;;;5081072;28;20030;-62
2022/12/10 08:03:25;;;;;;;183.93;34.47;;;1.20;99.90;;;;;;5050804;28;20308;-62
2022/12/10 08:06:13;;;;;;;200.45;34.30;;;1.20;99.90;;;;;;5051273;28;20074;-63
2022/12/10 08:08:39;;;;;;;195.57;35.47;;;1.20;99.90;;;;;;5081875;28;20066;-62
2022/12/10 08:11:06;;;;;;;196.50;33.88;;;1.20;99.90;;;;;;5065724;28;20430;-62
2022/12/10 08:13:32;;;;;;;189.27;33.88;;;1.20;99.90;;;;;;5059695;28;20044;-62
2022/12/10 08:16:12;;;;;;;146.25;30.65;;;1.20;99.90;;;;;;5080926;28;20032;-63
2022/12/10 08:18:39;;;;;;;314.02;45.42;;;1.20;99.90;;;;;;5061433;28;20394;-62
2022/12/10 08:21:11;;;;;;;134.95;28.95;;;1.20;99.90;;;;;;5064217;28;20032;-63
2022/12/10 08:23:36;;;;;;;208.88;34.55;;;1.20;99.90;;;;;;5087883;28;20028;-63
2022/12/10 08:26:06;;;;;;;151.75;31.88;;;1.20;99.90;;;;;;5063372;28;20032;-63
2022/12/10 08:28:33;;;;;;;169.48;31.88;;;1.20;99.90;;;;;;5078252;28;20529;-63
2022/12/10 08:30:59;;;;;;;176.27;32.67;;;1.20;99.90;;;;;;5080481;28;20048;-62
2022/12/10 08:33:24;;;;;;;214.38;34.50;;;1.20;99.90;;;;;;5051221;28;20104;-62
2022/12/10 08:35:50;;;;;;;126.40;30.67;;;1.20;99.90;;;;;;5068760;28;20109;-62
2022/12/10 08:38:16;;;;;;;183.00;33.20;;;1.20;99.90;;;;;;5079488;28;20331;-61
2022/12/10 08:40:42;;;;;;;183.80;31.17;;;1.20;99.90;;;;;;5075015;28;20123;-61
2022/12/10 08:43:08;;;;;;;134.10;30.48;;;1.20;99.90;;;;;;5087622;28;20144;-61
2022/12/10 08:45:34;;;;;;;184.23;32.35;;;1.20;99.90;;;;;;5060444;28;20048;-62
2022/12/10 08:48:01;;;;;;;161.18;30.67;;;1.20;99.90;;;;;;5084177;28;20027;-62
2022/12/10 08:50:28;;;;;;;224.60;35.13;;;1.20;99.90;;;;;;5108496;22;20031;-61
2022/12/10 08:52:53;;;;;;;164.10;29.92;;;1.20;99.90;;;;;;5070353;28;20441;-60
2022/12/10 08:55:19;;;;;;;144.90;29.45;;;1.20;99.90;;;;;;5109632;28;20109;-61
2022/12/10 08:57:45;;;;;;;158.15;29.52;;;1.10;99.90;;;;;;5091436;28;20185;-61
2022/12/10 09:00:13;;;;;;;179.43;32.25;;;1.20;99.90;;;;;;5109325;28;20915;-61
2022/12/10 09:02:39;;;;;;;136.57;29.75;;;1.20;99.90;;;;;;5106573;28;20092;-60
2022/12/10 09:05:05;;;;;;;156.38;30.27;;;1.10;99.90;;;;;;5109131;28;20102;-61
2022/12/10 09:07:31;;;;;;;156.75;29.95;;;1.10;99.90;;;;;;5108754;28;20055;-61
2022/12/10 09:09:57;;;;;;;238.23;35.17;;;1.10;99.90;;;;;;5074448;28;20132;-61
2022/12/10 09:12:23;;;;;;;159.85;28.17;;;1.10;99.90;;;;;;5109364;28;20040;-61
2022/12/10 09:14:49;;;;;;;132.40;28.83;;;1.20;99.90;;;;;;5109795;28;20464;-60
2022/12/10 09:17:15;;;;;;;152.32;30.33;;;1.10;99.90;;;;;;5073897;28;20142;-61
2022/12/10 09:19:40;;;;;;;157.13;33.15;;;1.40;99.90;;;;;;5106500;28;20071;-61
2022/12/10 09:22:06;;;;;;;178.23;32.58;;;1.10;99.90;;;;;;5108164;27;20124;-61
2022/12/10 09:24:32;;;;;;;167.48;32.33;;;1.10;99.90;;;;;;5095269;28;20242;-60
2022/12/10 09:26:57;;;;;;;121.35;25.60;;;1.10;99.90;;;;;;5091587;28;20055;-61
2022/12/10 09:29:23;;;;;;;150.77;29.65;;;1.10;99.90;;;;;;5111534;27;20120;-60
2022/12/10 09:31:52;;;;;;;131.23;28.75;;;1.10;99.90;;;;;;5107330;28;20046;-61
2022/12/10 09:34:18;;;;;;;129.65;29.85;;;1.10;99.90;;;;;;5105343;28;20383;-60
2022/12/10 09:36:44;;;;;;;234.32;33.60;;;1.10;99.90;;;;;;5103807;28;20040;-61
2022/12/10 09:39:10;;;;;;;186.60;31.10;;;1.10;99.90;;;;;;5090958;28;20043;-61
2022/12/10 09:42:13;;;;;;;117.93;26.55;;;1.10;99.90;;;;;;5089301;28;20051;-61
2022/12/10 09:44:44;;;;;;;107.03;24.45;;;1.10;99.90;;;;;;5099241;28;20054;-61
2022/12/10 09:47:10;;;;;;;171.10;29.15;;;1.10;99.90;;;;;;5089848;28;20422;-62
2022/12/10 09:50:04;;;;;;;138.95;27.48;;;1.10;99.90;;;;;;5090289;28;20031;-61
2022/12/10 09:52:36;;;;;;;158.25;29.25;;;1.10;99.90;;;;;;5105271;28;20206;-61
2022/12/10 09:55:10;;;;;;;104.13;25.08;;;1.00;99.90;;;;;;5109079;28;20039;-61
2022/12/10 09:57:41;;;;;;;111.50;25.20;;;1.10;99.90;;;;;;5090162;28;20039;-60
2022/12/10 10:00:20;;;;;;;130.30;25.50;;;1.00;99.90;;;;;;5080335;28;20043;-60
2022/12/10 10:02:46;;;;;;;106.75;28.13;;;1.10;99.90;;;;;;5107501;28;20195;-60
2022/12/10 10:05:22;;;;;;;99.07;25.35;;;1.00;99.90;;;;;;5106347;28;20051;-61
2022/12/10 10:07:52;;;;;;;143.70;27.05;;;1.00;99.90;;;;;;5105983;28;20071;-60
2022/12/10 10:10:38;;;;;;;103.68;24.95;;;1.10;99.90;;;;;;5084815;28;20152;-60
2022/12/10 10:13:07;;;;;;;107.97;25.65;;;1.00;99.90;;;;;;5090080;28;20040;-60
2022/12/10 10:15:35;;;;;;;100.78;25.52;;;1.00;99.90;;;;;;5107590;28;20044;-61
2022/12/10 10:18:13;;;;;;;145.32;28.17;;;1.00;99.90;;;;;;5088517;28;20051;-60
2022/12/10 10:20:39;;;;;;;145.32;27.73;;;1.10;99.90;;;;;;5103354;28;20100;-61
2022/12/10 10:23:06;;;;;;;103.72;26.35;;;1.20;99.90;;;;;;5089284;28;20036;-60
2022/12/10 10:25:32;;;;;;;114.75;25.80;;;1.10;99.90;;;;;;5087500;28;20453;-60
2022/12/10 10:27:58;;;;;;;105.25;25.15;;;1.10;99.90;;;;;;5104328;28;20039;-61
2022/12/10 10:30:24;;;;;;;159.60;29.23;;;1.10;99.90;;;;;;5083784;28;20123;-61
2022/12/10 10:32:56;;;;;;;140.32;27.33;;;1.10;99.90;;;;;;5088509;28;20104;-62
2022/12/10 10:35:33;;;;;;;122.65;26.08;;;1.10;99.90;;;;;;5086856;28;20054;-60
2022/12/10 10:38:13;;;;;;;119.38;25.38;;;1.10;99.90;;;;;;5063165;28;20179;-60
2022/12/10 10:40:45;;;;;;;115.75;25.40;;;1.10;99.90;;;;;;5062244;28;20055;-61
2022/12/10 10:43:24;;;;;;;107.50;25.70;;;1.10;99.90;;;;;;5076108;28;20472;-60
2022/12/10 10:46:15;;;;;;;78.60;22.20;;;1.10;99.90;;;;;;5084289;28;20040;-60
2022/12/10 10:48:41;;;;;;;104.88;25.70;;;1.10;99.90;;;;;;5083802;28;20039;-61
2022/12/10 10:51:12;;;;;;;136.35;28.20;;;1.10;99.90;;;;;;5101630;28;20031;-61
2022/12/10 10:53:38;;;;;;;88.13;23.42;;;1.10;99.90;;;;;;5105650;27;20092;-60
2022/12/10 10:56:19;;;;;;;142.82;29.85;;;1.10;99.90;;;;;;5100799;27;20450;-61
2022/12/10 10:58:58;;;;;;;188.75;32.15;;;1.10;99.90;;;;;;5063375;28;20124;-60
2022/12/10 11:01:27;;;;;;;110.72;23.50;;;1.10;99.90;;;;;;5055045;28;20280;-60
2022/12/10 11:03:59;;;;;;;97.47;24.50;;;1.10;99.90;;;;;;5098209;28;20044;-61
2022/12/10 11:06:25;;;;;;;176.98;27.73;;;1.00;99.90;;;;;;5101793;28;20493;-61
2022/12/10 11:08:57;;;;;;;152.52;28.92;;;1.00;99.90;;;;;;5096919;28;20034;-61
2022/12/10 11:11:34;;;;;;;105.00;23.48;;;1.00;99.90;;;;;;5097304;28;20050;-62
2022/12/10 11:14:25;;;;;;;129.82;26.60;;;1.00;99.90;;;;;;5099157;28;20516;-60
2022/12/10 11:17:11;;;;;;;120.32;26.02;;;1.00;99.90;;;;;;5093258;28;20088;-61
2022/12/10 11:19:43;;;;;;;116.45;27.33;;;1.00;99.90;;;;;;5079531;28;20482;-61
2022/12/10 11:22:20;;;;;;;160.13;31.67;;;1.10;99.90;;;;;;5094905;28;20199;-61
2022/12/10 11:24:47;;;;;;;112.05;27.20;;;1.10;99.90;;;;;;5077371;28;20039;-61
2022/12/10 11:27:38;;;;;;;124.18;26.42;;;1.10;99.90;;;;;;5063661;28;20031;-60
2022/12/10 11:30:22;;;;;;;154.48;29.35;;;1.10;99.90;;;;;;5059976;28;20123;-60
2022/12/10 11:33:27;;;;;;;94.45;25.90;;;1.00;99.90;;;;;;5066391;28;20164;-60
2022/12/10 11:36:11;;;;;;;84.38;25.20;;;1.10;99.90;;;;;;5075954;28;20142;-62
2022/12/10 11:38:48;;;;;;;115.57;27.73;;;1.10;99.90;;;;;;5097013;28;20131;-60
2022/12/10 11:41:42;;;;;;;117.32;26.42;;;1.10;99.90;;;;;;5097382;28;20047;-61
2022/12/10 11:44:52;;;;;;;123.13;28.63;;;1.10;99.90;;;;;;5099062;28;20589;-60
2022/12/10 11:47:37;;;;;;;114.03;28.77;;;1.10;99.90;;;;;;5101673;28;20502;-60
2022/12/10 11:50:24;;;;;;;;;;;1.20;99.90;;;;;;5078633;28;20063;-60
2022/12/10 11:53:04;;;;;;;105.93;27.45;;;1.20;99.90;;;;;;5095696;28;19924;-61
2022/12/10 11:55:48;;;;;;;131.15;29.70;;;1.20;99.90;;;;;;5097458;28;20075;-61
2022/12/10 11:58:42;;;;;;;100.93;28.77;;;1.20;99.90;;;;;;5101247;28;20039;-61
2022/12/10 12:01:26;;;;;;;93.07;29.83;;;1.20;99.90;;;;;;5075354;28;20159;-60
2022/12/10 12:03:51;;;;;;;120.78;29.40;;;1.20;99.90;;;;;;5062473;28;20143;-61
2022/12/10 12:06:32;;;;;;;107.38;29.13;;;1.20;99.90;;;;;;5082914;28;20135;-61
2022/12/10 12:09:21;;;;;;;135.70;32.95;;;1.30;99.90;;;;;;5081491;28;20047;-60
2022/12/10 12:12:18;;;;;;;137.48;32.22;;;1.30;99.90;;;;;;5081320;28;20052;-61
2022/12/10 12:14:54;;;;;;;104.70;29.58;;;1.30;99.90;;;;;;5097835;28;20071;-60
2022/12/10 12:17:50;;;;;;;108.97;30.25;;;1.30;99.90;;;;;;5078886;28;20043;-60
2022/12/10 12:20:43;;;;;;;122.30;30.50;;;1.30;99.90;;;;;;5098728;28;20078;-61
2022/12/10 12:23:29;;;;;;;94.57;30.88;;;1.30;99.90;;;;;;5073154;28;20044;-61
2022/12/10 12:26:23;;;;;;;93.95;30.27;;;1.30;99.90;;;;;;5080215;28;20039;-61
2022/12/10 12:28:59;;;;;;;90.50;31.00;;;1.30;99.90;;;;;;5090552;28;20036;-60
2022/12/10 12:31:37;;;;;;;100.40;29.60;;;1.40;99.90;;;;;;5095510;28;20039;-60
2022/12/10 12:34:32;;;;;;;100.60;28.48;;;1.40;99.90;;;;;;5098878;28;20035;-62
2022/12/10 12:36:58;;;;;;;84.25;29.48;;;1.40;99.90;;;;;;5082404;28;20031;-61
2022/12/10 12:39:45;;;;;;;120.45;32.63;;;1.30;99.90;;;;;;5096372;28;20032;-61
2022/12/10 12:42:30;;;;;;;105.20;32.50;;;1.30;99.90;;;;;;5082960;28;20118;-61
2022/12/10 12:45:08;;;;;;;103.07;32.92;;;1.30;99.90;;;;;;5097817;28;20043;-60
2022/12/10 12:48:02;;;;;;;103.03;34.80;;;1.30;99.90;;;;;;5102295;27;20036;-60
2022/12/10 12:50:48;;;;;;;92.60;33.58;;;1.30;99.90;;;;;;5085187;28;20208;-62
2022/12/10 12:53:16;;;;;;;118.28;30.80;;;1.30;99.90;;;;;;5084640;28;20039;-61
2022/12/10 12:55:48;;;;;;;105.78;30.40;;;1.30;99.90;;;;;;5087724;28;20055;-62
2022/12/10 12:58:47;;;;;;;104.38;31.35;;;1.30;99.90;;;;;;5107035;27;20048;-62